Terminal Aerodrome Forecast
Issued by NWS Twin Cities, MN

Home | Current Version | Previous Version | Text Only | Print | Product List | Glossary Off
Versions: 1 2 3 4 5 6 7 8 9 10 11 12 13 14 15 16 17 18 19 20 21 22 23 24 25

000
FTUS43 KMPX 170900 AAA
TAFMSP
TAF AMD
KMSP 170900Z 1709/1812 34012G20KT P6SM BKN009 OVC015
     FM171200 34007KT P6SM OVC020
     FM172100 36009KT P6SM SCT020 OVC040
     FM180000 32008KT P6SM SCT250
     FM180600 VRB05KT P6SM BKN100=

USA.gov is the U.S. government's official web portal to all federal, state and local government web resources and services.